Time;durP1;ratioP1;P1;durP2;ratioP2;P2;SDS_P1;SDS_P2;PMS_P1;PMS_P2;Temp;Humidity;BMP_temperature;BMP_pressure;BME280_temperature;BME280_humidity;BME280_pressure;Samples;Min_cycle;Max_cycle;Signal;HPM_P1;HPM_P2
2020/12/24 00:01:30;;;;;;;22.60;8.43;;;;;;;;;;4996486;28;20079;-92
2020/12/24 00:03:57;;;;;;;19.35;6.57;;;;;;;;;;5000869;28;20050;-92
2020/12/24 00:06:29;;;;;;;14.68;6.32;;;;;;;;;;4999769;28;20104;-92
2020/12/24 00:08:57;;;;;;;14.77;6.13;;;;;;;;;;5006825;28;20055;-93
2020/12/24 00:11:25;;;;;;;18.02;6.75;;;;;;;;;;5003278;28;20086;-93
2020/12/24 00:13:52;;;;;;;16.27;6.85;;;;;;;;;;4999954;28;20069;-91
2020/12/24 00:16:19;;;;;;;18.27;6.97;;;;;;;;;;5000204;28;20046;-92
2020/12/24 00:18:45;;;;;;;18.80;7.03;;;;;;;;;;5000250;28;20046;-90
2020/12/24 00:21:13;;;;;;;17.52;7.38;;;;;;;;;;4998559;28;20050;-92
2020/12/24 00:23:40;;;;;;;20.33;8.00;;;;;;;;;;5000361;28;20401;-92
2020/12/24 00:26:07;;;;;;;20.50;7.60;;;;;;;;;;5001755;28;20046;-92
2020/12/24 00:28:34;;;;;;;19.40;7.35;;;;;;;;;;5002143;28;20054;-91
2020/12/24 00:31:08;;;;;;;17.83;7.38;;;;;;;;;;5005943;28;20041;-91
2020/12/24 00:33:36;;;;;;;17.83;6.97;;;;;;;;;;5017198;28;20105;-90
2020/12/24 00:36:03;;;;;;;19.33;7.25;;;;;;;;;;5016662;28;20034;-91
2020/12/24 00:38:30;;;;;;;24.05;7.75;;;;;;;;;;5020019;28;20030;-92
2020/12/24 00:40:57;;;;;;;17.25;6.78;;;;;;;;;;5024880;28;20022;-91
2020/12/24 00:43:24;;;;;;;19.45;7.68;;;;;;;;;;5020504;28;20050;-91
2020/12/24 00:46:26;;;;;;;19.83;7.63;;;;;;;;;;5024416;28;20053;-92
2020/12/24 00:48:53;;;;;;;20.40;6.65;;;;;;;;;;5027745;28;20053;-92
2020/12/24 00:51:19;;;;;;;15.45;6.65;;;;;;;;;;5006483;28;20054;-91
2020/12/24 00:53:46;;;;;;;14.18;6.18;;;;;;;;;;5001569;28;20061;-91
2020/12/24 00:56:13;;;;;;;13.20;6.20;;;;;;;;;;5000847;28;20043;-90
2020/12/24 00:58:39;;;;;;;17.33;6.53;;;;;;;;;;4999842;28;20134;-90
2020/12/24 01:01:08;;;;;;;13.05;5.40;;;;;;;;;;4995708;28;20472;-91
2020/12/24 01:04:00;;;;;;;7.95;4.50;;;;;;;;;;4995855;28;20050;-91
2020/12/24 01:06:26;;;;;;;13.88;4.95;;;;;;;;;;4994218;28;20161;-91
2020/12/24 01:08:57;;;;;;;10.43;4.40;;;;;;;;;;4998343;28;20055;-92
2020/12/24 01:11:30;;;;;;;8.98;4.80;;;;;;;;;;5000668;28;20046;-93
2020/12/24 01:13:59;;;;;;;14.68;5.07;;;;;;;;;;4999123;28;21022;-92
2020/12/24 01:16:26;;;;;;;16.52;4.97;;;;;;;;;;4999401;28;20046;-92
2020/12/24 01:18:58;;;;;;;12.60;4.22;;;;;;;;;;4998616;28;20061;-92
2020/12/24 01:21:25;;;;;;;11.00;4.75;;;;;;;;;;4997311;28;20073;-91
2020/12/24 01:23:52;;;;;;;16.48;4.07;;;;;;;;;;4999870;28;20055;-91
2020/12/24 01:26:22;;;;;;;11.35;4.00;;;;;;;;;;4997657;28;20050;-91
2020/12/24 01:28:49;;;;;;;11.65;4.18;;;;;;;;;;4998917;28;20054;-91
2020/12/24 01:31:17;;;;;;;8.88;3.58;;;;;;;;;;4999800;28;20042;-90
2020/12/24 01:33:43;;;;;;;15.43;3.28;;;;;;;;;;4996384;28;20049;-91
2020/12/24 01:36:29;;;;;;;16.83;2.58;;;;;;;;;;4999184;28;20727;-91
2020/12/24 01:38:55;;;;;;;17.05;2.33;;;;;;;;;;5002000;28;20084;-92
2020/12/24 01:41:22;;;;;;;16.73;2.40;;;;;;;;;;5012822;28;20061;-91
2020/12/24 01:43:49;;;;;;;12.35;2.72;;;;;;;;;;4997535;28;20137;-92
2020/12/24 01:46:25;;;;;;;22.38;2.40;;;;;;;;;;4997072;28;20129;-92
2020/12/24 01:48:53;;;;;;;17.67;2.63;;;;;;;;;;5000395;28;20368;-91
2020/12/24 01:51:27;;;;;;;16.92;2.38;;;;;;;;;;4998921;28;20046;-91
2020/12/24 01:53:58;;;;;;;12.73;2.15;;;;;;;;;;4998191;28;20051;-91
2020/12/24 01:56:31;;;;;;;14.52;2.85;;;;;;;;;;4996622;28;20113;-91
2020/12/24 01:59:00;;;;;;;;;;;;;;;;;;5015059;28;20062;-92
2020/12/24 02:01:26;;;;;;;12.18;1.92;;;;;;;;;;5001960;28;19937;-92
2020/12/24 02:03:53;;;;;;;10.38;2.40;;;;;;;;;;5002717;28;20491;-91
2020/12/24 02:06:26;;;;;;;14.25;2.78;;;;;;;;;;5004968;28;20042;-91
2020/12/24 02:08:57;;;;;;;10.30;2.17;;;;;;;;;;5004786;28;20045;-92
2020/12/24 02:11:25;;;;;;;9.68;2.95;;;;;;;;;;5002432;28;20046;-90
2020/12/24 02:13:51;;;;;;;13.15;2.53;;;;;;;;;;5003753;28;20097;-91
2020/12/24 02:16:18;;;;;;;14.95;2.92;;;;;;;;;;5008224;28;20066;-91
2020/12/24 02:18:45;;;;;;;9.23;2.83;;;;;;;;;;5004709;28;20046;-91
2020/12/24 02:21:14;;;;;;;14.50;2.35;;;;;;;;;;4998932;28;20061;-91
2020/12/24 02:23:44;;;;;;;9.60;2.92;;;;;;;;;;4999427;28;20583;-90
2020/12/24 02:26:11;;;;;;;7.50;2.75;;;;;;;;;;4998579;28;20045;-92
2020/12/24 02:28:38;;;;;;;14.38;2.83;;;;;;;;;;4997163;28;20088;-92
2020/12/24 02:31:05;;;;;;;16.00;2.70;;;;;;;;;;4998635;28;20050;-92
2020/12/24 02:33:48;;;;;;;13.27;2.63;;;;;;;;;;4997743;28;20054;-92
2020/12/24 02:36:15;;;;;;;4.65;1.83;;;;;;;;;;4998992;28;20137;-91
2020/12/24 02:38:50;;;;;;;9.40;2.38;;;;;;;;;;4997247;28;20105;-91
2020/12/24 02:41:19;;;;;;;6.72;1.90;;;;;;;;;;4998247;28;20446;-92
2020/12/24 02:43:45;;;;;;;15.68;2.15;;;;;;;;;;5001979;28;20045;-91
2020/12/24 02:46:12;;;;;;;5.63;1.70;;;;;;;;;;5001277;28;20103;-92
2020/12/24 02:48:39;;;;;;;8.68;2.00;;;;;;;;;;4980206;28;20102;-91
2020/12/24 02:51:08;;;;;;;6.22;1.67;;;;;;;;;;4999351;28;20062;-91
2020/12/24 02:53:41;;;;;;;9.13;1.45;;;;;;;;;;4997541;28;20548;-91
2020/12/24 02:56:08;;;;;;;10.25;1.50;;;;;;;;;;4998669;28;20058;-91
2020/12/24 02:58:36;;;;;;;15.18;1.85;;;;;;;;;;4998131;28;20426;-91
2020/12/24 03:01:03;;;;;;;14.43;1.80;;;;;;;;;;5010167;28;20101;-91
2020/12/24 03:03:30;;;;;;;9.52;1.73;;;;;;;;;;4998758;28;20073;-90
2020/12/24 03:05:56;;;;;;;11.10;1.90;;;;;;;;;;4999376;28;20561;-91
2020/12/24 03:08:23;;;;;;;6.53;1.30;;;;;;;;;;4992311;28;20046;-89
2020/12/24 03:10:50;;;;;;;6.25;1.40;;;;;;;;;;4994331;28;20047;-91
2020/12/24 03:13:16;;;;;;;9.02;1.27;;;;;;;;;;4994551;28;20064;-90
2020/12/24 03:15:43;;;;;;;7.10;1.48;;;;;;;;;;4994089;28;20112;-91
2020/12/24 03:18:10;;;;;;;12.80;1.30;;;;;;;;;;4992782;28;20092;-90
2020/12/24 03:20:36;;;;;;;7.25;1.52;;;;;;;;;;4995373;28;20088;-92
2020/12/24 03:23:03;;;;;;;11.75;1.23;;;;;;;;;;4989071;28;20054;-90
2020/12/24 03:25:30;;;;;;;7.65;1.23;;;;;;;;;;4990999;28;20069;-89
2020/12/24 03:27:57;;;;;;;5.97;1.10;;;;;;;;;;4995902;28;20057;-90
2020/12/24 03:30:32;;;;;;;2.90;1.05;;;;;;;;;;4994995;28;20104;-90
2020/12/24 03:33:00;;;;;;;2.53;0.73;;;;;;;;;;4991563;28;20078;-90
2020/12/24 03:35:27;;;;;;;3.08;1.10;;;;;;;;;;4993298;28;20058;-90
2020/12/24 03:37:54;;;;;;;6.70;1.40;;;;;;;;;;4992228;28;20129;-91
2020/12/24 03:40:20;;;;;;;3.13;1.00;;;;;;;;;;4993498;28;20133;-90
2020/12/24 03:42:47;;;;;;;5.05;1.13;;;;;;;;;;4990825;28;20632;-91
2020/12/24 03:45:14;;;;;;;4.05;1.13;;;;;;;;;;4996178;28;20046;-92
2020/12/24 03:47:53;;;;;;;6.28;1.55;;;;;;;;;;4994303;28;20050;-90
2020/12/24 03:50:34;;;;;;;6.53;1.48;;;;;;;;;;4992495;28;20051;-90
2020/12/24 03:53:02;;;;;;;8.20;1.25;;;;;;;;;;4993611;28;20129;-92
2020/12/24 03:55:29;;;;;;;7.13;1.92;;;;;;;;;;4992325;28;20518;-91
2020/12/24 03:57:55;;;;;;;11.13;1.80;;;;;;;;;;4988048;28;20048;-91
2020/12/24 04:00:22;;;;;;;4.72;1.50;;;;;;;;;;4990163;28;20074;-91
2020/12/24 04:02:53;;;;;;;5.65;1.95;;;;;;;;;;4997818;28;20045;-91
2020/12/24 04:05:20;;;;;;;5.60;1.58;;;;;;;;;;4996529;28;20065;-91
2020/12/24 04:07:53;;;;;;;8.38;1.15;;;;;;;;;;4995648;28;20077;-90
2020/12/24 04:10:22;;;;;;;4.57;1.65;;;;;;;;;;4999063;28;20058;-91
2020/12/24 04:12:49;;;;;;;11.38;1.60;;;;;;;;;;4998982;28;20099;-91
2020/12/24 04:15:15;;;;;;;7.03;1.48;;;;;;;;;;4999461;28;20100;-90
2020/12/24 04:17:42;;;;;;;6.10;2.42;;;;;;;;;;4996296;28;20145;-90
2020/12/24 04:20:09;;;;;;;7.95;1.70;;;;;;;;;;5012256;28;20116;-90
2020/12/24 04:22:35;;;;;;;9.30;1.70;;;;;;;;;;5000236;28;20078;-90
2020/12/24 04:25:03;;;;;;;8.90;1.58;;;;;;;;;;4999916;28;20053;-89
2020/12/24 04:27:31;;;;;;;12.52;1.95;;;;;;;;;;4996813;28;20100;-91
2020/12/24 04:29:58;;;;;;;7.63;1.50;;;;;;;;;;4997960;28;20042;-90
2020/12/24 04:32:24;;;;;;;6.80;1.80;;;;;;;;;;4998488;28;20081;-91
2020/12/24 04:34:54;;;;;;;11.82;1.55;;;;;;;;;;4999170;28;20050;-90
2020/12/24 04:37:21;;;;;;;4.97;1.48;;;;;;;;;;4997248;28;20045;-91
2020/12/24 04:39:48;;;;;;;5.00;1.42;;;;;;;;;;4999222;28;20057;-90
2020/12/24 04:42:15;;;;;;;5.68;1.40;;;;;;;;;;4995900;28;20053;-91
2020/12/24 04:44:46;;;;;;;10.02;1.50;;;;;;;;;;4997017;28;20051;-90
2020/12/24 04:47:13;;;;;;;4.35;1.40;;;;;;;;;;4997151;28;20414;-90
2020/12/24 04:49:40;;;;;;;10.65;1.30;;;;;;;;;;4998896;28;20108;-90
2020/12/24 04:52:08;;;;;;;4.00;1.50;;;;;;;;;;5000202;28;20406;-91
2020/12/24 04:54:35;;;;;;;4.30;1.55;;;;;;;;;;5004889;28;20054;-90
2020/12/24 04:57:07;;;;;;;2.67;1.45;;;;;;;;;;5007910;28;20046;-90
2020/12/24 04:59:34;;;;;;;8.30;1.80;;;;;;;;;;5006829;28;20081;-90
2020/12/24 05:02:04;;;;;;;12.45;2.13;;;;;;;;;;5009222;28;20287;-90
2020/12/24 05:04:32;;;;;;;6.60;1.67;;;;;;;;;;5004858;28;20041;-92
2020/12/24 05:07:06;;;;;;;9.55;2.00;;;;;;;;;;5003947;28;20062;-92
2020/12/24 05:09:36;;;;;;;9.35;1.80;;;;;;;;;;5014972;28;20057;-92
2020/12/24 05:12:03;;;;;;;9.40;2.08;;;;;;;;;;4995149;28;20093;-92
2020/12/24 05:14:35;;;;;;;10.45;2.05;;;;;;;;;;4999663;28;20050;-92
2020/12/24 05:17:07;;;;;;;10.73;1.80;;;;;;;;;;5002547;28;20508;-91
2020/12/24 05:19:47;;;;;;;13.10;2.13;;;;;;;;;;5000424;28;20051;-92
2020/12/24 05:22:17;;;;;;;15.48;2.83;;;;;;;;;;5011773;28;20046;-91
2020/12/24 05:24:44;;;;;;;13.13;2.15;;;;;;;;;;5000593;28;20403;-92
2020/12/24 05:27:15;;;;;;;7.55;2.72;;;;;;;;;;4999190;28;20728;-92
2020/12/24 05:29:46;;;;;;;18.63;2.90;;;;;;;;;;5000808;28;20041;-92
2020/12/24 05:32:14;;;;;;;13.15;2.85;;;;;;;;;;4995872;28;20050;-92
2020/12/24 05:34:41;;;;;;;8.52;2.67;;;;;;;;;;5000631;28;20050;-92
2020/12/24 05:37:18;;;;;;;14.88;3.30;;;;;;;;;;5001613;28;20053;-92
2020/12/24 05:39:46;;;;;;;9.85;2.88;;;;;;;;;;5015574;28;20085;-92
2020/12/24 05:42:13;;;;;;;8.90;2.58;;;;;;;;;;4982334;28;20049;-93
2020/12/24 05:44:43;;;;;;;17.67;3.22;;;;;;;;;;5003546;28;20403;-90
2020/12/24 05:47:09;;;;;;;12.93;3.22;;;;;;;;;;5016967;28;20042;-90
2020/12/24 05:49:36;;;;;;;13.15;2.60;;;;;;;;;;5004977;28;20050;-92
2020/12/24 05:52:05;;;;;;;6.75;2.13;;;;;;;;;;5000393;28;20104;-90
2020/12/24 05:54:34;;;;;;;15.95;2.35;;;;;;;;;;5003415;28;20074;-90
2020/12/24 05:57:04;;;;;;;5.82;1.88;;;;;;;;;;5003415;28;20049;-90
2020/12/24 05:59:37;;;;;;;4.63;1.52;;;;;;;;;;5005643;28;20496;-92
2020/12/24 06:02:12;;;;;;;6.38;1.73;;;;;;;;;;5006934;28;20058;-92
2020/12/24 06:04:48;;;;;;;10.05;1.85;;;;;;;;;;5005997;28;20056;-92
2020/12/24 06:07:18;;;;;;;7.82;1.83;;;;;;;;;;5006801;28;20042;-92
2020/12/24 06:09:49;;;;;;;7.07;1.80;;;;;;;;;;5001478;28;20076;-93
2020/12/24 06:12:26;;;;;;;5.30;1.63;;;;;;;;;;5002219;28;20047;-93
2020/12/24 06:14:58;;;;;;;4.38;1.65;;;;;;;;;;4999866;28;20396;-93
2020/12/24 06:17:30;;;;;;;;;;;;;;;;;;5001028;28;20459;-93
2020/12/24 06:19:58;;;;;;;8.10;1.33;;;;;;;;;;5000785;28;19922;-93
2020/12/24 06:22:35;;;;;;;9.20;1.50;;;;;;;;;;5002143;28;20418;-93
2020/12/24 06:25:05;;;;;;;7.63;2.13;;;;;;;;;;5002422;28;20042;-92
2020/12/24 06:27:53;;;;;;;12.75;1.45;;;;;;;;;;5003687;28;20045;-93
2020/12/24 06:30:24;;;;;;;7.82;1.67;;;;;;;;;;5018162;28;20049;-92
2020/12/24 06:32:59;;;;;;;3.50;1.15;;;;;;;;;;5021166;28;20038;-93
2020/12/24 06:35:42;;;;;;;2.53;0.73;;;;;;;;;;5018880;28;20049;-92
2020/12/24 06:38:13;;;;;;;4.03;1.40;;;;;;;;;;5017759;28;20049;-92
2020/12/24 06:40:43;;;;;;;4.43;1.08;;;;;;;;;;5021700;28;20050;-92
2020/12/24 06:43:15;;;;;;;2.88;0.75;;;;;;;;;;5035755;28;20319;-93
2020/12/24 06:45:46;;;;;;;6.38;0.73;;;;;;;;;;5017365;28;20050;-93
2020/12/24 06:48:21;;;;;;;5.55;0.60;;;;;;;;;;5016374;28;20056;-93
2020/12/24 06:51:02;;;;;;;2.22;0.55;;;;;;;;;;5012513;28;20061;-93
2020/12/24 06:53:39;;;;;;;1.75;0.70;;;;;;;;;;5009213;28;20054;-92
2020/12/24 06:56:10;;;;;;;;;;;;;;;;;;5002901;28;20124;-93
2020/12/24 06:58:41;;;;;;;3.17;1.00;;;;;;;;;;5002877;28;19926;-92
2020/12/24 07:01:15;;;;;;;4.97;0.80;;;;;;;;;;5004098;28;20513;-92
2020/12/24 07:03:47;;;;;;;4.10;1.25;;;;;;;;;;5001192;28;20479;-92
2020/12/24 07:06:34;;;;;;;2.47;0.85;;;;;;;;;;4999596;28;20059;-93
2020/12/24 07:09:22;;;;;;;3.80;1.20;;;;;;;;;;4998121;28;20051;-93
2020/12/24 07:11:52;;;;;;;2.20;0.90;;;;;;;;;;5003684;28;20067;-92
2020/12/24 07:14:25;;;;;;;3.63;0.88;;;;;;;;;;4999740;28;20053;-93
2020/12/24 07:16:57;;;;;;;;;;;;;;;;;;5004692;28;20104;-93
2020/12/24 07:19:30;;;;;;;1.95;0.57;;;;;;;;;;4998275;28;19968;-93
2020/12/24 07:21:57;;;;;;;2.47;0.90;;;;;;;;;;4997584;28;20101;-93
2020/12/24 07:24:34;;;;;;;9.77;1.70;;;;;;;;;;5015668;28;20074;-92
2020/12/24 07:27:03;;;;;;;2.45;1.08;;;;;;;;;;5001793;28;20052;-92
2020/12/24 07:29:51;;;;;;;3.15;0.80;;;;;;;;;;5001158;28;20408;-92
2020/12/24 07:32:21;;;;;;;1.35;1.02;;;;;;;;;;5020426;28;20049;-92
2020/12/24 07:34:50;;;;;;;1.17;0.63;;;;;;;;;;4986435;28;20097;-93
2020/12/24 07:37:19;;;;;;;1.27;0.55;;;;;;;;;;5001894;28;20042;-92
2020/12/24 07:39:53;;;;;;;2.28;0.60;;;;;;;;;;4998364;28;20058;-92
2020/12/24 07:42:34;;;;;;;1.98;1.15;;;;;;;;;;4999692;28;20065;-92
2020/12/24 07:45:01;;;;;;;2.83;1.40;;;;;;;;;;4999217;28;20050;-92
2020/12/24 07:47:30;;;;;;;1.90;0.88;;;;;;;;;;5002178;28;20050;-92
2020/12/24 07:50:02;;;;;;;1.67;0.70;;;;;;;;;;5001826;28;20046;-92
2020/12/24 07:52:38;;;;;;;4.63;0.85;;;;;;;;;;4999524;28;20121;-92
2020/12/24 07:55:09;;;;;;;3.78;1.20;;;;;;;;;;5000724;28;20052;-92
2020/12/24 07:57:48;;;;;;;5.50;1.10;;;;;;;;;;5002394;28;20543;-92
2020/12/24 08:00:18;;;;;;;1.33;0.40;;;;;;;;;;4999096;28;20049;-93
2020/12/24 08:03:00;;;;;;;4.82;0.88;;;;;;;;;;4996183;28;20085;-93
2020/12/24 08:05:37;;;;;;;2.72;0.60;;;;;;;;;;5019566;28;20077;-92
2020/12/24 08:08:13;;;;;;;7.03;0.60;;;;;;;;;;5000475;28;20037;-93
2020/12/24 08:10:43;;;;;;;4.47;1.40;;;;;;;;;;5002722;28;20475;-93
2020/12/24 08:13:15;;;;;;;4.13;1.73;;;;;;;;;;5003421;28;20042;-93
2020/12/24 08:15:46;;;;;;;3.13;1.30;;;;;;;;;;5002078;28;20054;-92
2020/12/24 08:18:21;;;;;;;6.93;2.78;;;;;;;;;;4999975;28;20052;-92
2020/12/24 08:20:58;;;;;;;4.13;2.08;;;;;;;;;;5002264;28;20134;-92
2020/12/24 08:23:53;;;;;;;56.17;21.63;;;;;;;;;;4989730;28;20050;-92
2020/12/24 08:26:26;;;;;;;16.73;7.50;;;;;;;;;;5003866;28;20062;-92
2020/12/24 08:32:09;;;;;;;10.27;2.78;;;;;;;;;;5002498;28;20121;-92
2020/12/24 08:34:37;;;;;;;7.97;2.90;;;;;;;;;;5007927;28;20047;-92
2020/12/24 08:37:06;;;;;;;8.52;3.55;;;;;;;;;;5007178;28;20045;-92
2020/12/24 08:39:36;;;;;;;13.77;5.50;;;;;;;;;;5006108;28;20039;-93
2020/12/24 08:45:36;;;;;;;8.68;3.20;;;;;;;;;;5006787;28;20087;-94
2020/12/24 08:51:29;;;;;;;10.07;3.80;;;;;;;;;;5003934;28;20089;-95
2020/12/24 08:54:11;;;;;;;4.47;2.10;;;;;;;;;;4989339;28;20391;-95
2020/12/24 08:56:46;;;;;;;5.20;2.03;;;;;;;;;;5017758;28;20061;-95
2020/12/24 08:59:14;;;;;;;5.15;1.77;;;;;;;;;;5005328;28;20381;-95
2020/12/24 09:01:43;;;;;;;2.58;1.20;;;;;;;;;;5004541;28;20066;-95
2020/12/24 09:08:15;;;;;;;5.07;1.58;;;;;;;;;;4999220;28;20053;-95
2020/12/24 09:11:02;;;;;;;12.75;2.00;;;;;;;;;;4996520;28;20479;-95
2020/12/24 09:13:43;;;;;;;5.82;1.70;;;;;;;;;;4987662;28;20074;-94
2020/12/24 09:16:40;;;;;;;4.43;1.83;;;;;;;;;;5012728;28;20460;-95
2020/12/24 09:19:11;;;;;;;3.55;1.60;;;;;;;;;;4995602;28;20039;-95
2020/12/24 09:21:53;;;;;;;7.32;2.28;;;;;;;;;;5006321;28;20062;-95
2020/12/24 09:24:21;;;;;;;4.80;2.05;;;;;;;;;;5003014;28;20112;-94
2020/12/24 09:26:56;;;;;;;7.13;1.67;;;;;;;;;;5003498;28;20039;-95
2020/12/24 09:29:28;;;;;;;4.60;1.77;;;;;;;;;;5004817;28;20042;-95
2020/12/24 09:32:14;;;;;;;4.72;1.75;;;;;;;;;;5008921;28;20042;-95
2020/12/24 09:34:44;;;;;;;8.13;2.30;;;;;;;;;;5006838;28;20050;-95
2020/12/24 09:37:15;;;;;;;9.18;1.90;;;;;;;;;;5023771;28;20030;-93
2020/12/24 09:39:44;;;;;;;3.15;1.65;;;;;;;;;;5021245;28;20048;-93
2020/12/24 09:42:19;;;;;;;3.70;1.77;;;;;;;;;;5018006;28;20023;-93
2020/12/24 09:44:48;;;;;;;5.18;1.85;;;;;;;;;;5020476;28;20038;-93
2020/12/24 09:47:19;;;;;;;5.70;2.00;;;;;;;;;;5020615;28;20034;-94
2020/12/24 09:50:07;;;;;;;6.35;2.35;;;;;;;;;;5018645;28;20038;-94
2020/12/24 09:52:46;;;;;;;4.78;2.17;;;;;;;;;;5023259;28;20106;-94
2020/12/24 09:55:14;;;;;;;7.68;1.88;;;;;;;;;;5017702;28;20046;-94
2020/12/24 09:57:41;;;;;;;6.07;1.63;;;;;;;;;;5026883;28;20057;-94
2020/12/24 10:00:24;;;;;;;7.32;1.60;;;;;;;;;;5020863;28;20057;-94
2020/12/24 10:02:52;;;;;;;4.07;1.75;;;;;;;;;;5002706;28;20054;-94
2020/12/24 10:05:24;;;;;;;8.90;2.60;;;;;;;;;;5004080;28;20081;-92
2020/12/24 10:07:51;;;;;;;5.78;3.08;;;;;;;;;;5007862;28;20046;-93
2020/12/24 10:10:36;;;;;;;3.47;1.70;;;;;;;;;;5007391;28;20050;-93
2020/12/24 10:13:13;;;;;;;7.20;1.20;;;;;;;;;;4990652;28;20042;-94
2020/12/24 10:15:51;;;;;;;5.57;1.58;;;;;;;;;;5000751;28;20141;-93
2020/12/24 10:18:55;;;;;;;9.20;4.30;;;;;;;;;;4999738;28;20054;-94
2020/12/24 10:25:17;;;;;;;9.27;2.78;;;;;;;;;;5008490;28;20033;-95
2020/12/24 10:27:48;;;;;;;17.05;5.75;;;;;;;;;;5003777;28;20074;-94
2020/12/24 10:30:31;;;;;;;20.55;5.95;;;;;;;;;;5007849;28;20041;-95
2020/12/24 10:33:01;;;;;;;15.40;5.90;;;;;;;;;;5003927;28;20046;-94
2020/12/24 10:35:30;;;;;;;25.77;7.28;;;;;;;;;;4985156;28;20042;-94
2020/12/24 10:41:55;;;;;;;8.38;3.30;;;;;;;;;;5001709;28;20033;-94
2020/12/24 10:44:31;;;;;;;9.13;3.47;;;;;;;;;;5003217;28;20487;-95
2020/12/24 10:47:01;;;;;;;11.13;3.40;;;;;;;;;;5002097;28;20042;-95
2020/12/24 10:49:37;;;;;;;13.63;4.22;;;;;;;;;;5001967;28;20054;-95
2020/12/24 10:55:10;;;;;;;8.38;3.83;;;;;;;;;;4997195;28;20507;-94
2020/12/24 10:57:49;;;;;;;16.27;4.82;;;;;;;;;;4985701;28;20061;-95
2020/12/24 11:00:16;;;;;;;17.70;5.95;;;;;;;;;;5004127;28;20056;-94
2020/12/24 11:02:45;;;;;;;17.02;5.32;;;;;;;;;;5000514;28;20077;-94
2020/12/24 11:05:25;;;;;;;14.13;5.75;;;;;;;;;;5001743;28;20066;-95
2020/12/24 11:07:54;;;;;;;11.93;5.05;;;;;;;;;;5004005;28;20042;-95
2020/12/24 11:10:44;;;;;;;16.70;5.13;;;;;;;;;;5000418;28;20050;-94
2020/12/24 11:13:43;;;;;;;13.77;5.75;;;;;;;;;;5008498;28;20129;-94
2020/12/24 11:16:29;;;;;;;14.95;5.30;;;;;;;;;;5006153;28;20176;-94
2020/12/24 11:19:02;;;;;;;19.25;4.80;;;;;;;;;;4995667;28;21437;-94
2020/12/24 11:21:38;;;;;;;22.60;6.72;;;;;;;;;;5001534;28;20050;-93
2020/12/24 11:24:32;;;;;;;22.15;6.35;;;;;;;;;;5003572;28;20050;-93
2020/12/24 11:27:17;;;;;;;15.13;6.47;;;;;;;;;;5003733;28;20455;-93
2020/12/24 11:29:49;;;;;;;13.23;5.72;;;;;;;;;;4998789;28;20638;-93
2020/12/24 11:32:18;;;;;;;13.77;6.47;;;;;;;;;;5004155;28;20050;-94
2020/12/24 11:34:53;;;;;;;16.58;3.97;;;;;;;;;;4998015;28;20096;-93
2020/12/24 11:37:33;;;;;;;15.27;5.50;;;;;;;;;;4997852;28;20463;-93
2020/12/24 11:40:12;;;;;;;14.63;4.78;;;;;;;;;;4987791;28;20136;-93
2020/12/24 11:42:45;;;;;;;15.90;5.88;;;;;;;;;;4999917;28;20077;-93
2020/12/24 11:45:19;;;;;;;13.75;4.97;;;;;;;;;;5005128;28;20070;-93
2020/12/24 11:47:45;;;;;;;12.75;4.65;;;;;;;;;;5020416;28;20106;-93
2020/12/24 11:50:15;;;;;;;13.32;5.10;;;;;;;;;;5002052;28;20050;-94
2020/12/24 11:52:44;;;;;;;15.23;4.93;;;;;;;;;;4999669;28;20114;-93
2020/12/24 11:55:27;;;;;;;14.80;5.28;;;;;;;;;;5003052;28;20457;-94
2020/12/24 11:57:56;;;;;;;22.15;5.63;;;;;;;;;;5001842;28;20054;-94
2020/12/24 12:00:25;;;;;;;20.20;7.53;;;;;;;;;;5008752;28;20836;-94
2020/12/24 12:02:54;;;;;;;21.27;7.53;;;;;;;;;;4994816;28;20043;-93
2020/12/24 12:08:54;;;;;;;18.92;7.53;;;;;;;;;;5002636;28;20114;-92
2020/12/24 12:12:13;;;;;;;19.80;8.40;;;;;;;;;;4997880;28;20053;-94
2020/12/24 12:15:00;;;;;;;26.75;8.60;;;;;;;;;;5012265;28;20137;-92
2020/12/24 12:17:53;;;;;;;32.22;8.20;;;;;;;;;;4999508;28;20125;-92
2020/12/24 12:20:21;;;;;;;35.13;9.35;;;;;;;;;;4994315;28;20088;-92
2020/12/24 12:23:07;;;;;;;25.38;9.05;;;;;;;;;;5015725;28;20434;-92
2020/12/24 12:26:02;;;;;;;21.30;8.68;;;;;;;;;;5012222;28;20084;-93
2020/12/24 12:28:30;;;;;;;31.70;9.93;;;;;;;;;;5007418;28;20042;-93
2020/12/24 12:31:00;;;;;;;27.92;9.05;;;;;;;;;;4996650;28;20078;-93
2020/12/24 12:33:45;;;;;;;35.05;10.82;;;;;;;;;;5010470;28;20096;-93
2020/12/24 12:36:21;;;;;;;32.55;9.38;;;;;;;;;;5006161;28;20078;-93
2020/12/24 12:38:59;;;;;;;31.90;10.13;;;;;;;;;;4990083;28;20050;-94
2020/12/24 12:41:42;;;;;;;29.83;10.57;;;;;;;;;;4997499;28;20057;-88
2020/12/24 12:44:09;;;;;;;35.17;8.57;;;;;;;;;;5000099;28;20050;-87
2020/12/24 12:46:37;;;;;;;32.47;9.07;;;;;;;;;;4997573;28;20058;-87
2020/12/24 12:49:04;;;;;;;26.40;8.73;;;;;;;;;;5014509;28;20061;-86
2020/12/24 12:51:37;;;;;;;25.35;8.52;;;;;;;;;;4997368;28;20050;-88
2020/12/24 12:54:06;;;;;;;33.15;9.40;;;;;;;;;;5011403;28;20430;-86
2020/12/24 12:56:43;;;;;;;24.67;9.80;;;;;;;;;;4997288;28;20048;-88
2020/12/24 12:59:11;;;;;;;22.50;9.05;;;;;;;;;;4996977;28;20071;-87
2020/12/24 13:01:39;;;;;;;27.90;9.15;;;;;;;;;;5000344;28;20073;-87
2020/12/24 13:04:10;;;;;;;37.78;8.98;;;;;;;;;;4999085;28;20124;-86
2020/12/24 13:06:41;;;;;;;24.88;8.27;;;;;;;;;;4998481;28;20038;-87
2020/12/24 13:09:21;;;;;;;24.83;8.20;;;;;;;;;;5001557;28;20046;-87
2020/12/24 13:11:52;;;;;;;24.25;8.52;;;;;;;;;;5019371;28;20053;-87
2020/12/24 13:14:21;;;;;;;21.35;7.68;;;;;;;;;;4999174;28;20059;-87
2020/12/24 13:16:51;;;;;;;25.15;7.05;;;;;;;;;;4994942;28;20085;-86
2020/12/24 13:19:18;;;;;;;23.48;8.35;;;;;;;;;;5000493;28;20057;-86
2020/12/24 13:21:54;;;;;;;27.33;8.18;;;;;;;;;;4997097;28;20086;-88
2020/12/24 13:24:23;;;;;;;24.33;7.78;;;;;;;;;;5002319;28;20101;-85
2020/12/24 13:26:55;;;;;;;24.95;7.72;;;;;;;;;;4996925;28;20053;-87
2020/12/24 13:29:25;;;;;;;24.30;7.75;;;;;;;;;;4996341;28;20121;-85
2020/12/24 13:31:55;;;;;;;26.15;8.13;;;;;;;;;;4998284;28;20056;-86
2020/12/24 13:34:22;;;;;;;28.55;8.13;;;;;;;;;;4994273;28;20390;-87
2020/12/24 13:36:52;;;;;;;35.28;8.98;;;;;;;;;;4997013;28;20052;-87
2020/12/24 13:39:20;;;;;;;25.25;7.88;;;;;;;;;;4997692;28;20070;-86
2020/12/24 13:41:51;;;;;;;27.90;9.40;;;;;;;;;;4995407;28;20053;-87
2020/12/24 13:44:19;;;;;;;24.17;8.38;;;;;;;;;;4994280;28;20129;-86
2020/12/24 13:46:53;;;;;;;23.85;8.85;;;;;;;;;;4999087;28;20054;-86
2020/12/24 13:49:26;;;;;;;;;;;;;;;;;;4998366;28;20053;-86
2020/12/24 13:51:57;;;;;;;26.73;8.25;;;;;;;;;;5009802;28;19926;-86
2020/12/24 13:54:35;;;;;;;26.50;8.10;;;;;;;;;;4991439;28;20050;-85
2020/12/24 13:57:13;;;;;;;25.17;9.27;;;;;;;;;;4998189;28;20054;-94
2020/12/24 13:59:42;;;;;;;30.63;8.35;;;;;;;;;;5001834;28;20062;-91
2020/12/24 14:02:10;;;;;;;38.90;9.32;;;;;;;;;;4997636;28;20051;-87
2020/12/24 14:04:37;;;;;;;27.65;8.50;;;;;;;;;;4996794;28;20046;-87
2020/12/24 14:07:05;;;;;;;19.75;7.63;;;;;;;;;;4999325;28;20042;-86
2020/12/24 14:09:37;;;;;;;28.30;9.20;;;;;;;;;;4999244;28;20155;-86
2020/12/24 14:12:07;;;;;;;25.73;8.40;;;;;;;;;;4997220;28;20066;-87
2020/12/24 14:14:41;;;;;;;28.85;9.55;;;;;;;;;;4996758;28;20692;-86
2020/12/24 14:17:12;;;;;;;41.33;12.65;;;;;;;;;;4994942;28;20129;-86
2020/12/24 14:19:45;;;;;;;39.22;13.05;;;;;;;;;;4995745;28;20047;-86
2020/12/24 14:22:12;;;;;;;62.05;19.63;;;;;;;;;;4991055;28;20057;-87
2020/12/24 14:24:43;;;;;;;38.53;12.88;;;;;;;;;;4993606;28;20058;-86
2020/12/24 14:27:27;;;;;;;100.97;33.95;;;;;;;;;;4992750;28;20050;-86
2020/12/24 14:29:58;;;;;;;35.00;13.55;;;;;;;;;;4996399;28;20096;-86
2020/12/24 14:32:26;;;;;;;30.77;11.55;;;;;;;;;;4993363;28;20050;-86
2020/12/24 14:34:58;;;;;;;29.58;10.05;;;;;;;;;;4993708;28;20042;-86
2020/12/24 14:37:33;;;;;;;30.63;11.85;;;;;;;;;;4982014;28;20148;-86
2020/12/24 14:40:03;;;;;;;30.00;11.98;;;;;;;;;;4994122;28;20407;-85
2020/12/24 14:42:33;;;;;;;68.10;26.73;;;;;;;;;;5007596;28;20161;-86
2020/12/24 14:45:04;;;;;;;72.93;26.65;;;;;;;;;;5014146;28;20053;-87
2020/12/24 14:47:31;;;;;;;74.28;30.55;;;;;;;;;;5000106;28;20046;-86
2020/12/24 14:49:58;;;;;;;38.75;17.13;;;;;;;;;;4996848;28;20052;-86
2020/12/24 14:52:25;;;;;;;43.78;13.48;;;;;;;;;;4991837;28;20420;-85
2020/12/24 14:54:52;;;;;;;37.42;10.80;;;;;;;;;;4994478;28;20092;-85
2020/12/24 14:57:19;;;;;;;22.70;10.00;;;;;;;;;;4995131;28;20058;-85
2020/12/24 14:59:45;;;;;;;36.67;13.25;;;;;;;;;;4995666;28;20042;-87
2020/12/24 15:02:15;;;;;;;47.13;15.82;;;;;;;;;;4995274;28;20042;-85
2020/12/24 15:04:57;;;;;;;30.30;10.80;;;;;;;;;;4993593;28;20057;-85
2020/12/24 15:07:24;;;;;;;50.63;18.48;;;;;;;;;;4998242;28;20065;-86
2020/12/24 15:09:51;;;;;;;35.80;14.48;;;;;;;;;;4993943;28;20046;-85
2020/12/24 15:12:18;;;;;;;36.38;11.60;;;;;;;;;;4993914;28;20050;-87
2020/12/24 15:14:50;;;;;;;34.20;12.18;;;;;;;;;;5013111;28;20133;-86
2020/12/24 15:17:21;;;;;;;30.88;11.35;;;;;;;;;;4992807;28;20050;-86
2020/12/24 15:19:48;;;;;;;25.15;9.10;;;;;;;;;;5013126;28;20062;-86
2020/12/24 15:22:15;;;;;;;26.55;10.15;;;;;;;;;;4995004;28;20487;-87
2020/12/24 15:24:45;;;;;;;22.33;8.55;;;;;;;;;;4995783;28;20068;-86
2020/12/24 15:27:31;;;;;;;24.75;10.85;;;;;;;;;;4993685;28;20057;-87
2020/12/24 15:30:01;;;;;;;24.02;7.80;;;;;;;;;;4996541;28;20047;-86
2020/12/24 15:32:28;;;;;;;27.73;7.25;;;;;;;;;;4993958;28;20069;-84